Time;durP1;ratioP1;P1;durP2;ratioP2;P2;SDS_P1;SDS_P2;PMS_P1;PMS_P2;Temp;Humidity;BMP_temperature;BMP_pressure;BME280_temperature;BME280_humidity;BME280_pressure;Samples;Min_cycle;Max_cycle;Signal;HPM_P1;HPM_P2
2024/01/24 00:00:12;;;;;;;59.92;11.10;;;;;;;10.28;100.00;100483.63;5030392;28;20096;-92
2024/01/24 00:02:38;;;;;;;65.95;11.57;;;;;;;10.28;100.00;100504.25;5030433;28;20400;-92
2024/01/24 00:05:03;;;;;;;57.88;12.48;;;;;;;10.33;100.00;100521.22;5031697;28;20022;-92
2024/01/24 00:07:29;;;;;;;59.97;8.80;;;;;;;10.36;100.00;100498.66;5031918;28;20467;-93
2024/01/24 00:09:55;;;;;;;59.85;10.43;;;;;;;10.38;100.00;100509.72;5031789;28;20030;-92
2024/01/24 00:12:20;;;;;;;59.15;9.52;;;;;;;10.30;100.00;100493.84;5032088;28;20029;-92
2024/01/24 00:14:46;;;;;;;61.83;12.15;;;;;;;10.41;100.00;100498.41;5031809;28;20026;-92
2024/01/24 00:17:12;;;;;;;64.28;10.82;;;;;;;10.30;100.00;100495.63;5031786;28;20043;-92
2024/01/24 00:19:37;;;;;;;44.92;7.95;;;;;;;10.30;100.00;100513.66;5035503;28;20528;-92
2024/01/24 00:22:03;;;;;;;59.83;9.85;;;;;;;10.38;100.00;100508.91;5034706;28;20021;-91
2024/01/24 00:24:28;;;;;;;56.10;8.70;;;;;;;10.41;100.00;100511.31;5034734;28;20021;-92
2024/01/24 00:26:54;;;;;;;57.70;9.20;;;;;;;10.40;100.00;100512.25;5035603;28;20029;-92
2024/01/24 00:29:19;;;;;;;53.75;10.30;;;;;;;10.44;100.00;100522.31;5035861;28;20026;-92
2024/01/24 00:31:48;;;;;;;49.08;8.45;;;;;;;10.42;100.00;100523.31;5034609;28;20472;-93
2024/01/24 00:34:13;;;;;;;64.68;10.15;;;;;;;10.40;100.00;100527.72;5034504;28;20029;-92
2024/01/24 00:36:39;;;;;;;71.80;11.80;;;;;;;10.40;100.00;100527.72;5034262;28;20500;-92
2024/01/24 00:39:05;;;;;;;68.30;13.55;;;;;;;10.35;100.00;100534.88;5035212;28;20029;-92
2024/01/24 00:41:31;;;;;;;59.75;9.20;;;;;;;10.34;100.00;100549.53;5035943;28;20029;-93
2024/01/24 00:43:56;;;;;;;63.38;9.70;;;;;;;10.35;100.00;100524.56;5034724;28;20032;-92
2024/01/24 00:46:22;;;;;;;55.40;9.07;;;;;;;10.35;100.00;100555.53;5034928;28;20017;-92
2024/01/24 00:48:47;;;;;;;66.72;11.60;;;;;;;10.39;100.00;100569.94;5036171;28;20025;-92
2024/01/24 00:51:12;;;;;;;66.57;10.38;;;;;;;10.42;100.00;100546.53;5034620;28;20021;-92
2024/01/24 00:53:40;;;;;;;64.72;10.18;;;;;;;10.32;100.00;100560.84;5034834;28;20045;-91
2024/01/24 00:56:06;;;;;;;74.13;11.88;;;;;;;10.26;100.00;100552.47;5035659;28;20049;-92
2024/01/24 00:58:31;;;;;;;56.10;10.25;;;;;;;10.28;100.00;100560.19;5034379;28;20064;-92
2024/01/24 01:00:58;;;;;;;62.10;11.20;;;;;;;10.23;100.00;100572.47;5034333;28;20045;-93
2024/01/24 01:03:23;;;;;;;63.70;9.63;;;;;;;10.19;100.00;100566.66;5034438;28;20036;-93
2024/01/24 01:05:48;;;;;;;63.53;11.02;;;;;;;10.11;100.00;100588.59;5033615;28;20399;-91
2024/01/24 01:08:14;;;;;;;73.35;11.07;;;;;;;10.19;100.00;100582.13;5035634;28;20018;-93
2024/01/24 01:10:39;;;;;;;58.22;10.82;;;;;;;10.18;100.00;100574.47;5035311;28;20029;-93
2024/01/24 01:13:05;;;;;;;82.72;13.38;;;;;;;10.17;100.00;100580.50;5034282;28;20100;-92
2024/01/24 01:15:30;;;;;;;61.28;12.98;;;;;;;10.15;100.00;100647.69;5034188;28;20029;-92
2024/01/24 01:17:56;;;;;;;71.43;10.20;;;;;;;10.10;100.00;100580.03;5035446;28;20483;-92
2024/01/24 01:20:21;;;;;;;69.00;12.10;;;;;;;10.01;100.00;100580.50;5035576;28;20464;-92
2024/01/24 01:22:47;;;;;;;62.72;11.63;;;;;;;9.98;100.00;100591.81;5035508;28;20394;-92
2024/01/24 01:25:12;;;;;;;70.90;9.68;;;;;;;9.98;100.00;100585.84;5035203;28;20030;-92
2024/01/24 01:27:39;;;;;;;66.55;12.10;;;;;;;9.93;100.00;100605.88;5035156;28;20038;-92
2024/01/24 01:30:05;;;;;;;68.72;12.38;;;;;;;9.85;100.00;100604.53;5034216;28;20025;-92
2024/01/24 01:32:31;;;;;;;66.97;11.95;;;;;;;9.68;100.00;100565.03;5034649;28;20075;-92
2024/01/24 01:34:56;;;;;;;77.25;11.75;;;;;;;9.69;100.00;100629.41;5033983;28;20056;-92
2024/01/24 01:37:23;;;;;;;67.60;11.13;;;;;;;9.68;100.00;100627.75;5033438;28;20052;-92
2024/01/24 01:39:49;;;;;;;71.68;12.23;;;;;;;9.66;100.00;100634.72;5034469;28;20024;-92
2024/01/24 01:42:15;;;;;;;74.30;11.07;;;;;;;9.70;100.00;100625.91;5034228;28;20029;-90
2024/01/24 01:44:48;;;;;;;66.47;11.50;;;;;;;9.75;100.00;100629.09;5034786;28;20032;-92
2024/01/24 01:47:14;;;;;;;67.45;11.50;;;;;;;9.67;100.00;100615.78;5034310;28;20151;-92
2024/01/24 01:49:42;;;;;;;59.42;9.85;;;;;;;9.75;100.00;100674.66;5033116;28;20121;-91
2024/01/24 01:52:08;;;;;;;78.18;13.77;;;;;;;9.69;100.00;100667.25;5034213;28;20028;-91
2024/01/24 01:54:33;;;;;;;78.55;11.93;;;;;;;9.66;100.00;100665.66;5034251;28;20025;-92
2024/01/24 01:56:59;;;;;;;70.93;10.98;;;;;;;9.75;100.00;100634.25;5034061;28;20033;-93
2024/01/24 01:59:25;;;;;;;68.82;11.23;;;;;;;9.73;100.00;100628.34;5034528;28;20074;-92
2024/01/24 02:01:54;;;;;;;80.05;12.57;;;;;;;9.72;100.00;100612.97;5032734;28;20159;-92
2024/01/24 02:04:20;;;;;;;67.32;10.95;;;;;;;9.72;100.00;100644.72;5034035;28;20056;-92
2024/01/24 02:06:45;;;;;;;75.68;11.88;;;;;;;9.64;100.00;100641.69;5033199;28;20052;-92
2024/01/24 02:09:11;;;;;;;72.05;13.10;;;;;;;9.49;100.00;100657.94;5033042;28;20387;-92
2024/01/24 02:11:39;;;;;;;89.25;15.23;;;;;;;9.50;100.00;100660.41;5032959;28;20037;-92
2024/01/24 02:14:04;;;;;;;62.53;11.75;;;;;;;9.58;100.00;100680.66;5033917;28;20025;-91
2024/01/24 02:16:30;;;;;;;69.43;11.82;;;;;;;9.43;100.00;100659.88;5032397;28;20440;-92
2024/01/24 02:18:55;;;;;;;64.60;12.85;;;;;;;9.43;100.00;100685.63;5034029;28;20025;-92
2024/01/24 02:21:20;;;;;;;65.57;10.77;;;;;;;9.42;100.00;100673.69;5032419;28;20029;-92
2024/01/24 02:23:47;;;;;;;71.68;11.05;;;;;;;9.42;100.00;100663.38;5033631;28;20032;-92
2024/01/24 02:26:13;;;;;;;69.90;12.32;;;;;;;9.45;100.00;100674.44;5032158;28;20021;-92
2024/01/24 02:28:38;;;;;;;76.80;11.65;;;;;;;9.38;100.00;100674.72;5033533;28;20022;-92
2024/01/24 02:31:04;;;;;;;70.38;11.40;;;;;;;9.36;100.00;100668.84;5032431;28;20462;-92
2024/01/24 02:33:29;;;;;;;54.67;10.65;;;;;;;9.36;100.00;100688.59;5033576;28;20029;-91
2024/01/24 02:35:54;;;;;;;77.40;11.60;;;;;;;9.33;100.00;100674.13;5033801;28;20030;-92
2024/01/24 02:38:20;;;;;;;73.22;12.13;;;;;;;9.27;100.00;100648.69;5032295;28;20648;-92
2024/01/24 02:40:45;;;;;;;71.15;12.68;;;;;;;9.31;100.00;100668.19;5033166;28;20403;-93
2024/01/24 02:43:11;;;;;;;68.55;11.15;;;;;;;9.30;100.00;100660.56;5031190;28;20391;-92
2024/01/24 02:45:36;;;;;;;85.00;12.48;;;;;;;9.27;100.00;100681.34;5021470;28;20029;-92
2024/01/24 02:48:02;;;;;;;66.03;12.48;;;;;;;9.31;100.00;100672.53;5013395;28;20022;-92
2024/01/24 02:50:27;;;;;;;66.78;13.75;;;;;;;9.28;100.00;100663.22;5013700;28;20026;-92
2024/01/24 02:52:52;;;;;;;68.85;11.25;;;;;;;9.19;100.00;100720.31;5013352;28;20480;-92
2024/01/24 02:55:18;;;;;;;58.13;10.52;;;;;;;9.27;100.00;100720.78;5013126;28;20101;-93
2024/01/24 02:57:44;;;;;;;68.97;11.55;;;;;;;9.21;100.00;100731.38;5011923;28;20040;-92
2024/01/24 03:00:12;;;;;;;61.55;9.38;;;;;;;9.28;100.00;100758.50;5012061;28;20032;-91
2024/01/24 03:02:38;;;;;;;76.88;13.10;;;;;;;9.22;100.00;100743.34;5011839;28;20476;-92
2024/01/24 03:05:05;;;;;;;63.88;10.95;;;;;;;9.25;100.00;100747.53;5013003;28;20018;-92
2024/01/24 03:07:31;;;;;;;60.42;10.13;;;;;;;9.22;100.00;100753.66;5011964;28;20480;-92
2024/01/24 03:09:56;;;;;;;55.55;9.75;;;;;;;9.20;100.00;100763.19;5013166;28;20057;-91
2024/01/24 03:12:21;;;;;;;67.80;10.20;;;;;;;9.29;100.00;100765.34;5013032;28;20480;-93
2024/01/24 03:14:47;;;;;;;67.72;12.82;;;;;;;9.21;100.00;100763.09;5013092;28;20049;-91
2024/01/24 03:17:12;;;;;;;66.30;9.80;;;;;;;9.08;100.00;100761.19;5012894;28;20114;-92
2024/01/24 03:19:37;;;;;;;65.30;11.40;;;;;;;9.11;100.00;100761.03;5011420;28;20033;-91
2024/01/24 03:22:03;;;;;;;56.83;10.50;;;;;;;9.15;100.00;100778.03;5012830;28;20036;-92
2024/01/24 03:24:29;;;;;;;59.35;11.38;;;;;;;9.11;100.00;100767.00;5011494;28;20029;-91
2024/01/24 03:26:55;;;;;;;81.10;11.75;;;;;;;9.13;100.00;100779.84;5012786;28;20025;-92
2024/01/24 03:29:20;;;;;;;73.13;12.15;;;;;;;9.09;100.00;100768.00;5012610;28;20030;-92
2024/01/24 03:31:45;;;;;;;74.55;12.57;;;;;;;9.08;100.00;100792.09;5011198;28;20026;-92
2024/01/24 03:34:12;;;;;;;62.45;10.90;;;;;;;9.15;100.00;100811.50;5011318;28;20028;-92
2024/01/24 03:36:37;;;;;;;62.33;11.18;;;;;;;9.18;100.00;100817.34;5011135;28;20022;-92
2024/01/24 03:39:03;;;;;;;85.97;14.48;;;;;;;9.21;100.00;100824.09;5012559;28;20101;-93
2024/01/24 03:41:29;;;;;;;75.00;11.40;;;;;;;9.16;100.00;100815.75;5012275;28;20503;-91
2024/01/24 03:43:54;;;;;;;84.00;11.10;;;;;;;9.16;100.00;100811.41;5012384;28;20030;-92
2024/01/24 03:46:20;;;;;;;72.50;12.20;;;;;;;9.13;100.00;100803.84;5011212;28;20370;-91
2024/01/24 03:48:46;;;;;;;77.15;11.23;;;;;;;9.17;100.00;100815.69;5011168;28;20022;-92
2024/01/24 03:51:11;;;;;;;63.50;13.38;;;;;;;9.12;100.00;100829.66;5011482;28;20048;-92
2024/01/24 03:53:37;;;;;;;68.70;13.18;;;;;;;9.11;100.00;100836.53;5010752;28;20037;-93
2024/01/24 03:56:03;;;;;;;75.18;11.07;;;;;;;9.12;100.00;100874.28;5012361;28;20032;-92
2024/01/24 03:58:28;;;;;;;55.58;10.57;;;;;;;9.16;100.00;100893.81;5011389;28;20025;-90
2024/01/24 04:00:55;;;;;;;66.40;11.80;;;;;;;9.21;100.00;100860.97;5012377;28;20036;-91
2024/01/24 04:03:22;;;;;;;61.53;11.32;;;;;;;9.13;100.00;100873.38;5012297;28;20065;-91
2024/01/24 04:05:47;;;;;;;64.95;9.55;;;;;;;9.13;100.00;100888.00;5010842;28;20468;-91
2024/01/24 04:08:12;;;;;;;67.53;11.18;;;;;;;9.06;100.00;100904.63;5012557;28;20084;-91
2024/01/24 04:10:38;;;;;;;69.95;11.50;;;;;;;9.07;100.00;100898.53;5011576;28;20026;-92
2024/01/24 04:13:03;;;;;;;70.53;13.45;;;;;;;9.02;100.00;100865.28;5012730;28;20053;-92
2024/01/24 04:15:29;;;;;;;58.95;10.98;;;;;;;9.05;100.00;100883.19;5012774;28;20457;-92
2024/01/24 04:17:55;;;;;;;73.40;10.15;;;;;;;9.09;100.00;100887.28;5011505;28;20030;-91
2024/01/24 04:20:20;;;;;;;69.25;10.52;;;;;;;9.06;100.00;100886.59;5011884;28;20101;-91
2024/01/24 04:22:46;;;;;;;62.08;11.07;;;;;;;9.15;100.00;100879.28;5012507;28;20124;-91
2024/01/24 04:25:12;;;;;;;85.90;12.80;;;;;;;9.18;100.00;100886.03;5011076;28;20033;-92
2024/01/24 04:27:37;;;;;;;71.20;11.73;;;;;;;9.12;100.00;100876.00;5011194;28;20057;-92
2024/01/24 04:30:04;;;;;;;65.63;11.70;;;;;;;9.19;100.00;100914.31;5011563;28;20026;-92
2024/01/24 04:32:30;;;;;;;70.88;12.20;;;;;;;9.15;100.00;100905.03;5012340;28;20518;-91
2024/01/24 04:34:56;;;;;;;67.32;10.57;;;;;;;9.16;100.00;100934.19;5011341;28;20030;-92
2024/01/24 04:37:21;;;;;;;72.05;12.40;;;;;;;9.18;100.00;100919.53;5011059;28;20381;-92
2024/01/24 04:39:46;;;;;;;72.72;12.82;;;;;;;9.18;100.00;100925.50;5012321;28;20030;-93
2024/01/24 04:42:12;;;;;;;65.68;11.70;;;;;;;9.23;100.00;100925.31;5012717;28;20484;-92
2024/01/24 04:44:37;;;;;;;75.78;11.88;;;;;;;9.18;100.00;100937.56;5010989;28;20022;-93
2024/01/24 04:47:03;;;;;;;69.00;12.98;;;;;;;9.24;100.00;100952.72;5010976;28;20018;-93
2024/01/24 04:49:28;;;;;;;72.28;11.20;;;;;;;9.18;100.00;100943.53;5012422;28;20029;-92
2024/01/24 04:51:54;;;;;;;69.35;11.70;;;;;;;9.17;100.00;100941.03;5012389;28;20053;-93
2024/01/24 04:54:19;;;;;;;63.58;12.60;;;;;;;9.15;100.00;100945.41;5012134;28;20104;-91
2024/01/24 04:56:46;;;;;;;71.20;11.32;;;;;;;9.20;100.00;100948.63;5010486;28;20030;-91
2024/01/24 04:59:15;;;;;;;72.55;12.05;;;;;;;9.11;100.00;100983.31;5010362;28;20022;-92
2024/01/24 05:01:41;;;;;;;60.92;10.75;;;;;;;9.16;100.00;100975.41;5012211;28;20037;-92
2024/01/24 05:04:07;;;;;;;71.75;11.82;;;;;;;9.04;100.00;100978.50;5011308;28;20648;-92
2024/01/24 05:06:32;;;;;;;73.82;13.65;;;;;;;9.04;100.00;100965.63;5014041;28;20131;-92
2024/01/24 05:08:58;;;;;;;70.15;10.23;;;;;;;8.96;100.00;100958.25;5014481;28;20033;-92
2024/01/24 05:11:23;;;;;;;70.57;11.23;;;;;;;8.97;100.00;100976.22;5014277;28;20120;-92
2024/01/24 05:13:48;;;;;;;65.35;10.30;;;;;;;9.00;100.00;100976.06;5014527;28;20040;-93
2024/01/24 05:16:14;;;;;;;73.88;11.07;;;;;;;8.91;100.00;100976.44;5015472;28;20029;-92
2024/01/24 05:18:39;;;;;;;81.50;11.90;;;;;;;8.87;100.00;101000.63;5015899;28;20100;-93
2024/01/24 05:21:05;;;;;;;59.78;11.20;;;;;;;8.88;100.00;101002.31;5015588;28;20096;-92
2024/01/24 05:23:32;;;;;;;80.32;12.50;;;;;;;8.81;100.00;100990.59;5015729;28;20030;-92
2024/01/24 05:25:57;;;;;;;73.63;11.52;;;;;;;8.87;100.00;101000.63;5015423;28;20065;-92
2024/01/24 05:28:23;;;;;;;72.68;11.68;;;;;;;8.85;100.00;100994.75;5014092;28;20099;-92
2024/01/24 05:30:48;;;;;;;67.25;10.43;;;;;;;8.84;100.00;100994.78;5015536;28;20022;-92
2024/01/24 05:33:13;;;;;;;77.60;12.18;;;;;;;8.83;100.00;101003.41;5013862;28;20113;-91
2024/01/24 05:35:39;;;;;;;64.65;10.30;;;;;;;8.85;100.00;100997.31;5013478;28;20384;-92
2024/01/24 05:38:04;;;;;;;76.15;12.13;;;;;;;8.79;100.00;101002.69;5013559;28;20138;-92
2024/01/24 05:40:30;;;;;;;77.10;12.57;;;;;;;8.78;100.00;100998.47;5015361;28;20026;-92
2024/01/24 05:42:55;;;;;;;74.68;11.13;;;;;;;8.88;100.00;101017.78;5015092;28;20025;-92
2024/01/24 05:45:23;;;;;;;64.07;11.05;;;;;;;8.79;100.00;101013.00;5015200;28;20033;-91
2024/01/24 05:47:48;;;;;;;69.18;10.55;;;;;;;8.73;100.00;101008.09;5015331;28;20026;-92
2024/01/24 05:50:14;;;;;;;67.82;10.13;;;;;;;8.73;100.00;101018.38;5015078;28;20088;-91
2024/01/24 05:52:40;;;;;;;57.13;9.48;;;;;;;8.77;100.00;101030.22;5015070;28;20028;-93
2024/01/24 05:55:06;;;;;;;61.67;11.10;;;;;;;8.61;100.00;101017.16;5015299;28;20033;-93
2024/01/24 05:57:32;;;;;;;76.55;11.88;;;;;;;8.59;100.00;101030.97;5014973;28;20550;-92
2024/01/24 05:59:59;;;;;;;68.88;9.73;;;;;;;8.59;100.00;101031.81;5014857;28;20022;-92
2024/01/24 06:02:25;;;;;;;71.85;11.27;;;;;;;8.61;100.00;101029.16;5014611;28;20029;-92
2024/01/24 06:04:50;;;;;;;81.65;12.93;;;;;;;8.61;100.00;101045.47;5014493;28;20033;-91
2024/01/24 06:07:15;;;;;;;93.22;12.40;;;;;;;8.64;100.00;101049.66;5014639;28;20026;-92
2024/01/24 06:09:41;;;;;;;55.42;9.65;;;;;;;8.62;100.00;101059.16;5014945;28;20488;-92
2024/01/24 06:12:06;;;;;;;81.13;10.40;;;;;;;8.61;100.00;101065.19;5013604;28;20076;-92
2024/01/24 06:14:31;;;;;;;67.97;10.93;;;;;;;8.64;100.00;101070.22;5014025;28;20033;-92
2024/01/24 06:16:57;;;;;;;72.82;11.65;;;;;;;8.65;100.00;101082.19;5014048;28;20030;-93
2024/01/24 06:19:22;;;;;;;78.95;10.43;;;;;;;8.57;100.00;101096.19;5014159;28;20105;-91
2024/01/24 06:21:47;;;;;;;60.53;9.32;;;;;;;8.62;100.00;101079.75;5014574;28;20033;-92
2024/01/24 06:24:13;;;;;;;61.70;9.85;;;;;;;8.53;100.00;101086.94;5013270;28;20054;-91
2024/01/24 06:26:38;;;;;;;68.45;9.77;;;;;;;8.56;100.00;101094.53;5014317;28;20144;-92
2024/01/24 06:29:04;;;;;;;69.00;10.60;;;;;;;8.50;100.00;101120.47;5013000;28;20030;-91
2024/01/24 06:31:30;;;;;;;70.95;10.32;;;;;;;8.63;100.00;101127.72;5014214;28;20028;-91
2024/01/24 06:33:55;;;;;;;62.35;9.93;;;;;;;8.55;100.00;101136.56;5014389;28;20026;-92
2024/01/24 06:36:21;;;;;;;58.65;11.10;;;;;;;8.50;100.00;101140.22;5014456;28;20022;-93
2024/01/24 06:38:46;;;;;;;64.75;10.32;;;;;;;8.59;100.00;101147.59;5015123;28;20065;-91
2024/01/24 06:41:13;;;;;;;55.88;11.18;;;;;;;8.54;100.00;101136.66;5014068;28;20109;-93
2024/01/24 06:43:40;;;;;;;60.92;10.18;;;;;;;8.55;100.00;101162.31;5014059;28;20030;-94
2024/01/24 06:46:05;;;;;;;73.35;13.73;;;;;;;8.52;100.00;101159.84;5014360;28;20032;-94
2024/01/24 06:48:30;;;;;;;64.80;10.25;;;;;;;8.48;100.00;101178.84;5013640;28;20100;-95
2024/01/24 06:50:56;;;;;;;64.55;11.02;;;;;;;8.48;100.00;101191.72;5013211;28;20036;-94
2024/01/24 06:53:21;;;;;;;60.97;11.95;;;;;;;8.50;100.00;101182.22;5014230;28;20099;-94
2024/01/24 06:55:47;;;;;;;61.53;12.60;;;;;;;8.41;100.00;101203.13;5014967;28;20022;-94
2024/01/24 06:58:12;;;;;;;67.50;8.93;;;;;;;8.37;100.00;101196.41;5013891;28;20026;-95
2024/01/24 07:00:38;;;;;;;63.08;13.68;;;;;;;8.45;100.00;101215.00;5013739;28;20056;-95
2024/01/24 07:03:04;;;;;;;67.43;8.88;;;;;;;8.43;100.00;101206.50;5013890;28;20030;-94
2024/01/24 07:05:29;;;;;;;79.72;10.52;;;;;;;8.44;100.00;101203.03;5014010;28;20040;-96
2024/01/24 07:07:56;;;;;;;66.78;10.45;;;;;;;8.36;100.00;101205.88;5013864;28;20114;-95
2024/01/24 07:10:21;;;;;;;76.97;11.25;;;;;;;8.39;100.00;101215.19;5013823;28;20435;-96
2024/01/24 07:12:47;;;;;;;62.40;10.07;;;;;;;8.37;100.00;101206.69;5014512;28;20029;-95
2024/01/24 07:15:14;;;;;;;66.85;10.07;;;;;;;8.32;100.00;101211.16;5013997;28;20018;-95
2024/01/24 07:17:40;;;;;;;68.57;9.88;;;;;;;8.37;100.00;101206.69;5013859;28;20138;-96
2024/01/24 07:20:05;;;;;;;75.30;11.60;;;;;;;8.37;100.00;101216.97;5013988;28;20105;-94
2024/01/24 07:22:31;;;;;;;61.63;9.85;;;;;;;8.33;100.00;101220.56;5013069;28;20559;-96
2024/01/24 07:24:56;;;;;;;71.43;12.52;;;;;;;8.32;100.00;101234.31;5013458;28;20033;-95
2024/01/24 07:27:21;;;;;;;64.63;11.30;;;;;;;8.27;100.00;101239.63;5013992;28;20061;-95
2024/01/24 07:29:47;;;;;;;77.13;10.80;;;;;;;8.23;100.00;101244.91;5012494;28;20383;-95
2024/01/24 07:32:12;;;;;;;69.20;12.55;;;;;;;8.15;100.00;101246.03;5013455;28;20026;-95
2024/01/24 07:34:38;;;;;;;74.90;12.75;;;;;;;8.18;100.00;101239.09;5013186;28;20048;-95
2024/01/24 07:37:05;;;;;;;67.68;11.43;;;;;;;8.18;100.00;101233.97;5013056;28;20033;-96
2024/01/24 07:39:30;;;;;;;66.28;11.25;;;;;;;8.18;100.00;101236.53;5012703;28;20376;-95
2024/01/24 07:41:56;;;;;;;76.65;10.48;;;;;;;8.13;100.00;101250.38;5012652;28;20029;-95
2024/01/24 07:44:22;;;;;;;64.32;9.63;;;;;;;8.09;100.00;101251.34;5012810;28;20029;-96
2024/01/24 07:46:47;;;;;;;54.85;9.15;;;;;;;8.10;100.00;101260.78;5012632;28;20022;-95
2024/01/24 07:49:12;;;;;;;64.38;10.88;;;;;;;8.08;100.00;101257.41;5012833;28;20075;-95
2024/01/24 07:51:40;;;;;;;55.90;10.77;;;;;;;8.10;100.00;101265.06;5012436;28;20504;-96
2024/01/24 07:54:05;;;;;;;53.47;9.15;;;;;;;8.04;100.00;101271.25;5012706;28;20443;-94
2024/01/24 07:56:31;;;;;;;66.05;9.32;;;;;;;8.05;100.00;101282.41;5013685;28;20034;-96
2024/01/24 07:58:56;;;;;;;64.20;8.13;;;;;;;7.92;100.00;101292.22;5012535;28;20025;-95
2024/01/24 08:01:21;;;;;;;56.13;8.40;;;;;;;8.00;100.00;101290.25;5012282;28;20053;-95
2024/01/24 08:03:47;;;;;;;50.50;9.13;;;;;;;8.14;100.00;101293.22;5012211;28;20033;-95
2024/01/24 08:06:12;;;;;;;58.85;9.63;;;;;;;8.19;100.00;101287.06;5011695;28;20164;-94
2024/01/24 08:08:38;;;;;;;69.70;9.55;;;;;;;8.18;100.00;101293.09;5012267;28;20026;-94
2024/01/24 08:11:03;;;;;;;68.40;10.43;;;;;;;8.24;100.00;101298.88;5012148;28;20507;-95
2024/01/24 08:13:29;;;;;;;75.20;13.20;;;;;;;8.24;100.00;101298.03;5012053;28;20022;-95
2024/01/24 08:15:54;;;;;;;60.58;8.50;;;;;;;8.20;100.00;101281.88;5011967;28;20030;-94
2024/01/24 08:18:20;;;;;;;59.58;9.30;;;;;;;8.20;100.00;101292.16;5012667;28;20041;-94
2024/01/24 08:20:45;;;;;;;67.72;10.05;;;;;;;8.22;100.00;101299.78;5011985;28;20400;-95
2024/01/24 08:23:11;;;;;;;57.38;12.85;;;;;;;8.22;100.00;101308.38;5011884;28;20038;-95
2024/01/24 08:25:37;;;;;;;60.22;8.85;;;;;;;8.32;100.00;101322.59;5012139;28;20113;-95
2024/01/24 08:28:02;;;;;;;66.82;10.77;;;;;;;8.34;100.00;101340.56;5012178;28;20117;-95
2024/01/24 08:30:27;;;;;;;64.93;10.45;;;;;;;8.37;100.00;101348.16;5011969;28;20026;-96
2024/01/24 08:32:53;;;;;;;59.47;9.93;;;;;;;8.42;100.00;101356.59;5011989;28;20076;-95
2024/01/24 08:35:19;;;;;;;69.20;11.35;;;;;;;8.49;100.00;101360.66;5011746;28;20030;-94
2024/01/24 08:37:44;;;;;;;67.22;14.68;;;;;;;8.54;100.00;101366.47;5013163;28;20472;-96
2024/01/24 08:40:10;;;;;;;63.08;11.13;;;;;;;8.57;100.00;101373.25;5015029;28;20026;-94
2024/01/24 08:42:37;;;;;;;59.80;9.18;;;;;;;8.66;100.00;101390.13;5015828;28;20025;-95
2024/01/24 08:45:02;;;;;;;68.25;10.40;;;;;;;8.69;100.00;101400.31;5015594;28;20144;-96
2024/01/24 08:47:28;;;;;;;65.45;10.10;;;;;;;8.77;100.00;101401.69;5015537;28;20108;-95
2024/01/24 08:49:56;;;;;;;56.47;8.68;;;;;;;8.75;100.00;101400.06;5015799;28;20022;-95
2024/01/24 08:52:21;;;;;;;66.72;10.32;;;;;;;8.71;100.00;101411.41;5015824;28;20468;-96
2024/01/24 08:54:47;;;;;;;63.80;9.77;;;;;;;8.72;100.00;101424.19;5015513;28;20030;-95
2024/01/24 08:57:12;;;;;;;64.88;9.10;;;;;;;8.73;100.00;101427.59;5015673;28;20109;-95
2024/01/24 08:59:38;;;;;;;75.10;11.00;;;;;;;8.59;100.00;101432.41;5015520;28;20042;-95
2024/01/24 09:02:04;;;;;;;57.53;9.20;;;;;;;8.79;100.00;101441.09;5015284;28;20036;-94
2024/01/24 09:04:30;;;;;;;57.45;8.77;;;;;;;8.91;100.00;101421.84;5015316;28;20384;-95
2024/01/24 09:06:56;;;;;;;54.88;8.50;;;;;;;9.00;100.00;101429.25;5015445;28;20025;-96
2024/01/24 09:09:21;;;;;;;60.53;10.05;;;;;;;9.13;100.00;101424.50;5015678;28;20069;-95
2024/01/24 09:11:46;;;;;;;62.63;9.05;;;;;;;9.13;100.00;101423.66;5015413;28;20045;-96
2024/01/24 09:14:12;;;;;;;60.08;10.63;;;;;;;9.19;100.00;101428.56;5015148;28;20049;-95
2024/01/24 09:16:37;;;;;;;67.65;9.90;;;;;;;9.02;100.00;101411.16;5015313;28;20029;-95
2024/01/24 09:19:03;;;;;;;55.80;8.65;;;;;;;8.99;100.00;101431.84;5014910;28;20108;-96
2024/01/24 09:21:28;;;;;;;45.17;8.25;;;;;;;9.14;100.00;101413.28;5014704;28;20117;-94
2024/01/24 09:23:53;;;;;;;65.15;9.27;;;;;;;8.98;100.00;101402.69;5015134;28;20030;-94
2024/01/24 09:26:19;;;;;;;61.85;9.57;;;;;;;9.12;100.00;101404.78;5015190;28;20025;-95
2024/01/24 09:28:44;;;;;;;54.95;7.90;;;;;;;9.26;100.00;101412.00;5015023;28;20556;-94
2024/01/24 09:31:09;;;;;;;52.95;8.23;;;;;;;9.18;100.00;101421.75;5015065;28;20049;-96
2024/01/24 09:33:35;;;;;;;61.55;10.00;;;;;;;9.35;100.00;101429.72;5014587;28;20080;-95
2024/01/24 09:36:00;;;;;;;53.65;10.65;;;;;;;9.36;100.00;101436.56;5014989;28;20022;-94
2024/01/24 09:38:26;;;;;;;52.38;8.93;;;;;;;9.36;100.00;101427.97;5015231;28;20484;-95
2024/01/24 09:40:53;;;;;;;43.17;9.43;;;;;;;9.25;100.00;101432.69;5014805;28;20025;-94
2024/01/24 09:43:22;;;;;;;43.63;7.90;;;;;;;9.36;100.00;101459.75;5014723;28;20026;-95
2024/01/24 09:45:49;;;;;;;47.70;9.23;;;;;;;9.36;100.00;101467.47;5014590;28;20026;-94
2024/01/24 09:48:16;;;;;;;63.17;9.02;;;;;;;9.25;100.00;101461.03;5014781;28;20026;-95
2024/01/24 09:50:43;;;;;;;52.58;10.25;;;;;;;9.46;100.00;101472.28;5014472;28;20116;-94
2024/01/24 09:53:13;;;;;;;73.35;13.00;;;;;;;9.38;100.00;101480.28;5014795;28;20080;-95
2024/01/24 09:55:39;;;;;;;62.97;8.73;;;;;;;9.20;100.00;101482.63;5013994;28;20040;-94
2024/01/24 09:58:04;;;;;;;59.20;9.93;;;;;;;9.50;100.00;101485.00;5014827;28;20022;-95
2024/01/24 10:00:29;;;;;;;80.50;11.05;;;;;;;9.48;100.00;101506.56;5014431;28;20030;-94
2024/01/24 10:02:55;;;;;;;63.78;8.70;;;;;;;9.61;100.00;101497.53;5014845;28;20358;-96
2024/01/24 10:05:21;;;;;;;71.35;12.90;;;;;;;9.43;100.00;101489.53;5014769;28;20026;-95
2024/01/24 10:07:46;;;;;;;63.65;8.85;;;;;;;9.43;100.00;101493.84;5014884;28;20014;-95
2024/01/24 10:10:13;;;;;;;60.28;9.82;;;;;;;9.58;100.00;101502.75;5014663;28;20092;-95
2024/01/24 10:12:41;;;;;;;56.30;9.20;;;;;;;9.68;100.00;101493.81;5014637;28;20061;-95
2024/01/24 10:15:08;;;;;;;64.75;12.23;;;;;;;9.89;100.00;101509.38;5014559;28;20018;-94
2024/01/24 10:17:33;;;;;;;54.30;9.65;;;;;;;9.95;100.00;101501.41;5014343;28;20030;-94
2024/01/24 10:19:59;;;;;;;54.17;8.57;;;;;;;10.15;100.00;101522.13;5014404;28;20434;-96
2024/01/24 10:22:24;;;;;;;57.45;9.25;;;;;;;10.31;100.00;101508.66;5014530;28;20030;-95
2024/01/24 10:24:50;;;;;;;52.92;7.93;;;;;;;10.74;100.00;101522.44;5014614;28;20026;-95
2024/01/24 10:27:15;;;;;;;56.50;8.93;;;;;;;10.78;100.00;101519.69;5014339;28;20022;-94
2024/01/24 10:29:44;;;;;;;51.58;8.43;;;;;;;11.22;100.00;101534.22;5014421;28;20056;-94
2024/01/24 10:32:10;;;;;;;56.13;9.25;;;;;;;10.66;100.00;101533.09;5013919;28;20033;-94
2024/01/24 10:34:38;;;;;;;56.47;9.93;;;;;;;11.00;100.00;101542.88;5014072;28;20037;-95
2024/01/24 10:37:08;;;;;;;66.82;11.20;;;;;;;10.85;100.00;101533.16;5014089;28;20018;-95
2024/01/24 10:39:35;;;;;;;66.30;8.82;;;;;;;10.94;100.00;101537.94;5014177;28;20026;-94
2024/01/24 10:42:09;;;;;;;64.80;9.70;;;;;;;10.66;100.00;101526.19;5013282;28;20032;-95
2024/01/24 10:44:35;;;;;;;48.67;7.97;;;;;;;10.76;100.00;101539.56;5013137;28;20069;-96
2024/01/24 10:47:02;;;;;;;43.33;8.95;;;;;;;10.67;100.00;101535.59;5014195;28;20045;-95
2024/01/24 10:49:29;;;;;;;63.85;11.82;;;;;;;10.50;100.00;101550.91;5014245;28;20105;-95
2024/01/24 10:51:55;;;;;;;63.35;9.23;;;;;;;10.65;100.00;101555.47;5014168;28;20041;-95
2024/01/24 10:54:21;;;;;;;49.78;8.70;;;;;;;10.40;100.00;101565.09;5014538;28;20025;-96
2024/01/24 10:56:49;;;;;;;46.40;8.10;;;;;;;10.52;100.00;101564.59;5014041;28;20030;-94
2024/01/24 10:59:19;;;;;;;62.53;9.77;;;;;;;10.38;100.00;101577.19;5013865;28;20069;-96
2024/01/24 11:01:45;;;;;;;62.25;9.02;;;;;;;10.34;100.00;101576.50;5013739;28;20535;-95